Amherst, OH

9:19 AM EDT on July 07, 2015 (GMT -0400)
Vermilion Rd 1/4 mi North Rt 2 Overpass | | Change Station
CLOSE
Current Station
Personal Weather Station
Location: Vermilion, OH
Elevation: 669 ft
Nearby Weather Stations

Elev 669 ft 41.41 °N, 82.33 °W | Updated 29 seconds ago

Clear
Clear
85.1 °F
Feels Like 92 °F
N
3.1
Wind Variable Wind from SE
Gusts 4.5 mph

Today
High -- | Low -- °F
--% Chance of Precip.
Yesterday
High -- | Low -- °F
Precip. -- in
6:02 AM 9:04 PM
Waning Gibbous, 65% visible
Pressure 29.93 in
Visibility 7.0 miles
Clouds Clear
Heat Index 92 °F
Dew Point 73 °F
Humidity 67%
Rainfall 0.00 in
Snow Depth Not available.
UV 3 out of 12
Pollen 2.90 out of 12
Air Quality Not available.
Flu Activity Not available.
METAR KLPR 071253Z AUTO 21012KT 7SM CLR 24/21 A2995 RMK AO2 SLP134 T02390206 TSNO

More Conditions Fewer Conditions

Pressure 29.93 in
Visibility 7.0 miles
Clouds Clear
Heat Index 92 °F
Dew Point 73 °F
Humidity 67%
Rainfall 0.00 in
Snow Depth Not available.
UV 3 out of 12
Pollen 2.90 out of 12
Air Quality Not available.
Flu Activity Not available.
METAR KLPR 071253Z AUTO 21012KT 7SM CLR 24/21 A2995 RMK AO2 SLP134 T02390206 TSNO

More Conditions Fewer Conditions

10-Day Weather Forecast

×

Almanac

Astronomy

Jul. 07, 2015 Rise Set
Actual Time
Civil Twilight
Nautical Twilight
Astronomical Twilight
Moon
Length of Visible Light
Length of Day
Tomorrow will be .
, % of the Moon is Illuminated

Today's Extremes

State Highs State Lows

Community

WunderPhotos

Upload Photos

1,835,790 photos uploaded!

WunderBlogs® & News

Nearby

Air Quality

  Air Quality AQ Index Pollutant
Not available.

Snow Depth

Station Depth Elevation

Earthquake Activity

City Distance Mag. Time & Date
Minimum magnitude displayed is 2.5.

Coastal Water Temperatures

Place Temperature

Stations

Nearby Weather Stations

Station Location Temp. Windchill Dew Point Humidity Wind Precip. Elev Updated Type